Terminal Aerodrome Forecast
Issued by NWS Blacksburg, VA

Home | Current Version | Previous Version | Text Only | Print | Product List | Glossary On
Versions: 1 2 3 4 5 6 7 8 9 10 11 12 13 14 15 16 17 18 19 20 21 22 23 24 25 26 27 28 29 30 31 32 33 34
000
FTUS41 KRNK 020200 AAA
TAFROA
TAF AMD
KROA 020200Z 0202/0224 VRB04KT P6SM BKN015 OVC025
     FM020400 07005KT 6SM -DZ BR OVC015
     FM020800 06004KT 5SM -DZ BR SCT007 OVC015
      TEMPO 0209/0213 BKN007
     FM021500 08005KT P6SM OVC025
     FM021800 VRB04KT P6SM VCSH BKN035 OVC100=

USA.gov is the U.S. government's official web portal to all federal, state and local government web resources and services.